Time;durP1;ratioP1;P1;durP2;ratioP2;P2;SDS_P1;SDS_P2;PMS_P1;PMS_P2;Temp;Humidity;BMP_temperature;BMP_pressure;BME280_temperature;BME280_humidity;BME280_pressure;Samples;Min_cycle;Max_cycle;Signal;HPM_P1;HPM_P2
2022/03/26 00:02:08;;;;;;;113.45;54.83;;;;;;;;;;5061380;28;20457;-89
2022/03/26 00:04:36;;;;;;;114.43;52.85;;;;;;;;;;5061393;28;20219;-89
2022/03/26 00:07:03;;;;;;;116.32;55.45;;;;;;;;;;5062756;28;20265;-89
2022/03/26 00:09:30;;;;;;;107.57;53.77;;;;;;;;;;5061448;28;20250;-88
2022/03/26 00:11:56;;;;;;;116.03;54.22;;;;;;;;;;5063001;28;20450;-88
2022/03/26 00:14:22;;;;;;;115.65;52.22;;;;;;;;;;5062826;28;20188;-87
2022/03/26 00:16:49;;;;;;;110.87;53.30;;;;;;;;;;5061695;28;20231;-88
2022/03/26 00:19:16;;;;;;;107.80;53.42;;;;;;;;;;5062772;28;20450;-88
2022/03/26 00:21:45;;;;;;;111.60;52.28;;;;;;;;;;5061840;28;20263;-90
2022/03/26 00:24:11;;;;;;;109.93;51.53;;;;;;;;;;5061833;28;20196;-90
2022/03/26 00:26:38;;;;;;;114.30;54.07;;;;;;;;;;5060016;28;20258;-88
2022/03/26 00:29:04;;;;;;;113.28;54.30;;;;;;;;;;5060571;28;20454;-89
2022/03/26 00:31:33;;;;;;;109.93;52.23;;;;;;;;;;5061590;28;20230;-89
2022/03/26 00:33:59;;;;;;;109.60;52.22;;;;;;;;;;5061203;28;21162;-89
2022/03/26 00:36:26;;;;;;;109.00;52.38;;;;;;;;;;5062071;28;20279;-88
2022/03/26 00:38:54;;;;;;;116.22;54.30;;;;;;;;;;5061918;28;20222;-88
2022/03/26 00:41:20;;;;;;;116.03;55.57;;;;;;;;;;5061333;28;20200;-87
2022/03/26 00:43:47;;;;;;;113.03;53.35;;;;;;;;;;5065249;28;20447;-88
2022/03/26 00:46:13;;;;;;;108.67;52.27;;;;;;;;;;5065678;28;20196;-88
2022/03/26 00:48:40;;;;;;;113.10;53.40;;;;;;;;;;5065558;28;21042;-88
2022/03/26 00:51:06;;;;;;;111.30;53.20;;;;;;;;;;5065781;28;20204;-88
2022/03/26 00:53:33;;;;;;;123.77;54.80;;;;;;;;;;5065796;28;20454;-88
2022/03/26 00:56:01;;;;;;;111.95;54.53;;;;;;;;;;5065719;28;20438;-88
2022/03/26 00:58:27;;;;;;;111.80;54.53;;;;;;;;;;5064813;28;20232;-89
2022/03/26 01:00:54;;;;;;;118.67;55.10;;;;;;;;;;5065203;28;20446;-88
2022/03/26 01:03:20;;;;;;;111.47;53.70;;;;;;;;;;5065046;28;20480;-88
2022/03/26 01:05:46;;;;;;;109.57;53.50;;;;;;;;;;5065487;28;20200;-88
2022/03/26 01:08:13;;;;;;;114.10;54.67;;;;;;;;;;5065862;28;20230;-88
2022/03/26 01:10:40;;;;;;;116.23;55.17;;;;;;;;;;5065029;28;20215;-88
2022/03/26 01:13:08;;;;;;;114.15;54.78;;;;;;;;;;5064460;28;20451;-88
2022/03/26 01:15:34;;;;;;;117.57;53.38;;;;;;;;;;5064244;28;20219;-88
2022/03/26 01:18:01;;;;;;;114.68;55.05;;;;;;;;;;5065480;28;20277;-88
2022/03/26 01:20:27;;;;;;;116.57;54.80;;;;;;;;;;5065374;28;20221;-88
2022/03/26 01:22:54;;;;;;;110.07;52.83;;;;;;;;;;5065022;28;20230;-88
2022/03/26 01:25:20;;;;;;;115.88;55.45;;;;;;;;;;5063184;28;20196;-88
2022/03/26 01:27:47;;;;;;;118.20;56.50;;;;;;;;;;5043759;28;20255;-88
2022/03/26 01:30:15;;;;;;;119.35;53.58;;;;;;;;;;5052184;28;20204;-89
2022/03/26 01:32:43;;;;;;;119.38;54.08;;;;;;;;;;5060707;28;20203;-88
2022/03/26 01:35:10;;;;;;;120.78;56.65;;;;;;;;;;5061540;28;20227;-88
2022/03/26 01:37:36;;;;;;;116.80;57.30;;;;;;;;;;5060307;28;20290;-88
2022/03/26 01:40:03;;;;;;;112.10;53.40;;;;;;;;;;5059642;28;20192;-88
2022/03/26 01:42:29;;;;;;;109.18;52.95;;;;;;;;;;5061254;28;20200;-87
2022/03/26 01:44:56;;;;;;;114.97;54.40;;;;;;;;;;5062137;28;20196;-87
2022/03/26 01:47:24;;;;;;;115.28;56.10;;;;;;;;;;5057428;28;20200;-88
2022/03/26 01:49:51;;;;;;;110.50;53.58;;;;;;;;;;5059399;28;20192;-88
2022/03/26 01:52:18;;;;;;;108.60;52.13;;;;;;;;;;5059973;28;20200;-88
2022/03/26 01:54:45;;;;;;;119.18;56.05;;;;;;;;;;5058779;28;20228;-88
2022/03/26 01:57:11;;;;;;;111.90;54.30;;;;;;;;;;5059441;28;20250;-88
2022/03/26 01:59:38;;;;;;;120.68;57.65;;;;;;;;;;5058694;28;20192;-88
2022/03/26 02:02:05;;;;;;;120.03;54.85;;;;;;;;;;5054413;28;20587;-87
2022/03/26 02:04:34;;;;;;;118.97;55.38;;;;;;;;;;5034884;28;20247;-88
2022/03/26 02:07:02;;;;;;;108.03;51.50;;;;;;;;;;5057554;28;20268;-87
2022/03/26 02:09:33;;;;;;;106.78;52.97;;;;;;;;;;5063089;28;20239;-87
2022/03/26 02:11:59;;;;;;;109.03;52.13;;;;;;;;;;5062170;28;20203;-87
2022/03/26 02:14:26;;;;;;;119.00;54.95;;;;;;;;;;5060392;28;20203;-87
2022/03/26 02:16:53;;;;;;;116.53;57.28;;;;;;;;;;5055587;28;20250;-87
2022/03/26 02:19:20;;;;;;;117.72;56.15;;;;;;;;;;5054128;28;20200;-88
2022/03/26 02:21:49;;;;;;;117.85;56.13;;;;;;;;;;5057344;28;20287;-88
2022/03/26 02:24:15;;;;;;;111.43;53.78;;;;;;;;;;5057581;28;20200;-87
2022/03/26 02:26:43;;;;;;;111.60;54.55;;;;;;;;;;5056029;28;20193;-88
2022/03/26 02:29:10;;;;;;;120.63;56.30;;;;;;;;;;5056016;28;20192;-87
2022/03/26 02:31:37;;;;;;;111.82;52.58;;;;;;;;;;5061275;28;20234;-88
2022/03/26 02:34:05;;;;;;;121.82;54.63;;;;;;;;;;5062296;28;20204;-88
2022/03/26 02:36:31;;;;;;;115.40;54.25;;;;;;;;;;5063104;28;20613;-88
2022/03/26 02:38:59;;;;;;;104.32;51.83;;;;;;;;;;5063114;28;20231;-89
2022/03/26 02:41:25;;;;;;;109.20;52.45;;;;;;;;;;5062267;28;20204;-88
2022/03/26 02:43:52;;;;;;;107.68;52.55;;;;;;;;;;5061961;28;20226;-88
2022/03/26 02:46:18;;;;;;;107.88;51.65;;;;;;;;;;5061564;28;20196;-88
2022/03/26 02:48:45;;;;;;;108.80;52.03;;;;;;;;;;5063938;28;20208;-88
2022/03/26 02:51:11;;;;;;;113.10;51.90;;;;;;;;;;5062270;28;20200;-88
2022/03/26 02:53:38;;;;;;;105.25;51.30;;;;;;;;;;5063506;28;20305;-88
2022/03/26 02:56:06;;;;;;;122.97;52.95;;;;;;;;;;5063464;28;20279;-88
2022/03/26 02:58:32;;;;;;;108.30;51.78;;;;;;;;;;5063291;28;20228;-88
2022/03/26 03:00:59;;;;;;;108.57;52.40;;;;;;;;;;5062636;28;20195;-88
2022/03/26 03:03:25;;;;;;;109.13;54.42;;;;;;;;;;5061649;28;20196;-88
2022/03/26 03:05:52;;;;;;;112.13;50.95;;;;;;;;;;5060902;28;20290;-88
2022/03/26 03:08:18;;;;;;;110.85;52.75;;;;;;;;;;5062848;28;20203;-88
2022/03/26 03:10:45;;;;;;;114.25;52.08;;;;;;;;;;5063243;28;20199;-88
2022/03/26 03:13:13;;;;;;;104.45;50.63;;;;;;;;;;5063185;28;20219;-88
2022/03/26 03:15:39;;;;;;;113.10;53.13;;;;;;;;;;5062771;28;20200;-88
2022/03/26 03:18:06;;;;;;;111.25;53.53;;;;;;;;;;5062400;28;20235;-88
2022/03/26 03:20:32;;;;;;;104.15;51.15;;;;;;;;;;5062580;28;20295;-88
2022/03/26 03:22:59;;;;;;;108.70;51.20;;;;;;;;;;5061818;28;20230;-88
2022/03/26 03:25:29;;;;;;;106.60;51.47;;;;;;;;;;5062905;28;20211;-87
2022/03/26 03:27:55;;;;;;;106.90;51.08;;;;;;;;;;5062940;28;20215;-87
2022/03/26 03:30:23;;;;;;;108.75;51.55;;;;;;;;;;5063338;28;20250;-88
2022/03/26 03:32:49;;;;;;;105.68;49.92;;;;;;;;;;5062126;28;20623;-88
2022/03/26 03:35:16;;;;;;;107.80;51.45;;;;;;;;;;5062445;28;20660;-88
2022/03/26 03:37:42;;;;;;;107.65;50.92;;;;;;;;;;5060483;28;20223;-88
2022/03/26 03:40:10;;;;;;;109.80;52.13;;;;;;;;;;5062105;28;20246;-88
2022/03/26 03:42:37;;;;;;;106.38;51.38;;;;;;;;;;5062202;28;20203;-88
2022/03/26 03:45:04;;;;;;;116.63;52.45;;;;;;;;;;5062263;28;20200;-88
2022/03/26 03:47:32;;;;;;;113.10;52.70;;;;;;;;;;5059672;28;20192;-88
2022/03/26 03:49:59;;;;;;;113.47;53.80;;;;;;;;;;5060720;28;20211;-88
2022/03/26 03:52:25;;;;;;;108.07;51.67;;;;;;;;;;5060733;28;20196;-88
2022/03/26 03:54:52;;;;;;;108.57;51.42;;;;;;;;;;5060217;28;20285;-88
2022/03/26 03:57:18;;;;;;;112.47;54.05;;;;;;;;;;5062069;28;20204;-88
2022/03/26 03:59:45;;;;;;;108.00;51.72;;;;;;;;;;5062653;28;20219;-88
2022/03/26 04:02:11;;;;;;;112.13;52.33;;;;;;;;;;5062796;28;20219;-88
2022/03/26 04:04:40;;;;;;;110.93;51.70;;;;;;;;;;5063108;28;20792;-89
2022/03/26 04:07:07;;;;;;;106.93;50.40;;;;;;;;;;5062272;28;20192;-88
2022/03/26 04:09:34;;;;;;;110.93;51.85;;;;;;;;;;5062183;28;20775;-88
2022/03/26 04:12:00;;;;;;;106.93;52.08;;;;;;;;;;5061364;28;20246;-89
2022/03/26 04:14:27;;;;;;;108.55;50.38;;;;;;;;;;5063044;28;20263;-88
2022/03/26 04:16:54;;;;;;;104.45;51.13;;;;;;;;;;5064570;28;20204;-88
2022/03/26 04:19:20;;;;;;;106.78;52.22;;;;;;;;;;5066827;28;20227;-88
2022/03/26 04:21:49;;;;;;;113.45;51.50;;;;;;;;;;5066618;28;20196;-88
2022/03/26 04:24:16;;;;;;;113.68;53.90;;;;;;;;;;5066862;28;20192;-88
2022/03/26 04:26:43;;;;;;;108.47;52.42;;;;;;;;;;5065190;28;20188;-87
2022/03/26 04:29:09;;;;;;;110.30;53.92;;;;;;;;;;5064011;28;20223;-88
2022/03/26 04:31:36;;;;;;;112.95;50.97;;;;;;;;;;5065346;28;20226;-88
2022/03/26 04:34:02;;;;;;;110.75;52.25;;;;;;;;;;5065998;28;20226;-88
2022/03/26 04:36:29;;;;;;;109.68;52.90;;;;;;;;;;5065681;28;20192;-88
2022/03/26 04:38:57;;;;;;;108.18;51.53;;;;;;;;;;5065567;28;20228;-88
2022/03/26 04:41:23;;;;;;;109.95;51.78;;;;;;;;;;5065386;28;20270;-88
2022/03/26 04:43:50;;;;;;;108.63;51.75;;;;;;;;;;5064142;28;20207;-88
2022/03/26 04:46:16;;;;;;;114.45;53.03;;;;;;;;;;5064555;28;20249;-88
2022/03/26 04:48:43;;;;;;;108.40;52.55;;;;;;;;;;5064279;28;20233;-88
2022/03/26 04:51:09;;;;;;;108.40;51.90;;;;;;;;;;5065667;28;20192;-88
2022/03/26 04:53:35;;;;;;;112.38;52.25;;;;;;;;;;5065589;28;20265;-88
2022/03/26 04:56:03;;;;;;;107.68;51.60;;;;;;;;;;5064401;28;20230;-88
2022/03/26 04:58:30;;;;;;;103.18;50.28;;;;;;;;;;5045474;28;20221;-88
2022/03/26 05:00:56;;;;;;;109.20;50.97;;;;;;;;;;5054199;28;20208;-88
2022/03/26 05:03:24;;;;;;;113.10;51.65;;;;;;;;;;5063865;28;20206;-88
2022/03/26 05:05:50;;;;;;;112.13;51.50;;;;;;;;;;5065018;28;20220;-88
2022/03/26 05:08:17;;;;;;;113.95;54.58;;;;;;;;;;5065250;28;20204;-88
2022/03/26 05:10:43;;;;;;;110.22;52.20;;;;;;;;;;5065279;28;20200;-89
2022/03/26 05:13:11;;;;;;;111.30;54.17;;;;;;;;;;5065372;28;20200;-88
2022/03/26 05:15:37;;;;;;;112.45;53.63;;;;;;;;;;5065786;28;20204;-88
2022/03/26 05:18:04;;;;;;;106.40;50.78;;;;;;;;;;5064068;28;20204;-88
2022/03/26 05:20:31;;;;;;;116.80;52.40;;;;;;;;;;5065144;28;20256;-88
2022/03/26 05:22:57;;;;;;;111.20;53.75;;;;;;;;;;5063486;28;20199;-88
2022/03/26 05:25:24;;;;;;;115.97;53.92;;;;;;;;;;5064226;28;20200;-88
2022/03/26 05:27:52;;;;;;;116.50;53.85;;;;;;;;;;5063358;28;20196;-88
2022/03/26 05:30:20;;;;;;;113.55;53.95;;;;;;;;;;5063884;28;20204;-88
2022/03/26 05:32:47;;;;;;;117.60;55.58;;;;;;;;;;5063787;28;20250;-88
2022/03/26 05:35:14;;;;;;;121.35;55.05;;;;;;;;;;5051634;28;20272;-88
2022/03/26 05:37:41;;;;;;;124.93;57.25;;;;;;;;;;5065371;28;20231;-88
2022/03/26 05:40:08;;;;;;;123.35;57.13;;;;;;;;;;5065576;28;20227;-89
2022/03/26 05:42:35;;;;;;;113.70;55.67;;;;;;;;;;5064863;28;20196;-89
2022/03/26 05:45:02;;;;;;;112.28;54.85;;;;;;;;;;5065245;28;20431;-89
2022/03/26 05:47:30;;;;;;;117.40;55.65;;;;;;;;;;5064918;28;20246;-89
2022/03/26 05:49:57;;;;;;;119.15;57.20;;;;;;;;;;5064670;28;20225;-89
2022/03/26 05:52:23;;;;;;;129.55;57.15;;;;;;;;;;5063727;28;20207;-88
2022/03/26 05:54:50;;;;;;;118.63;56.55;;;;;;;;;;5064600;28;20236;-89
2022/03/26 05:57:18;;;;;;;124.25;55.17;;;;;;;;;;5064883;28;20192;-88
2022/03/26 05:59:45;;;;;;;119.60;56.25;;;;;;;;;;5065134;28;20274;-88
2022/03/26 06:02:12;;;;;;;123.90;57.75;;;;;;;;;;5064259;28;20259;-89
2022/03/26 06:04:40;;;;;;;120.72;57.20;;;;;;;;;;5064531;28;20208;-89
2022/03/26 06:07:07;;;;;;;125.68;57.28;;;;;;;;;;5063703;28;20210;-89
2022/03/26 06:09:34;;;;;;;115.40;56.97;;;;;;;;;;5064893;28;20286;-89
2022/03/26 06:12:00;;;;;;;120.72;57.20;;;;;;;;;;5063236;28;20204;-89
2022/03/26 06:14:28;;;;;;;118.00;57.60;;;;;;;;;;5063209;28;20227;-90
2022/03/26 06:16:55;;;;;;;127.50;57.83;;;;;;;;;;5064529;28;20197;-89
2022/03/26 06:19:22;;;;;;;122.70;60.50;;;;;;;;;;5064792;28;20232;-90
2022/03/26 06:21:50;;;;;;;125.18;58.67;;;;;;;;;;5063858;28;20438;-89
2022/03/26 06:24:17;;;;;;;117.13;59.30;;;;;;;;;;5062194;28;20204;-89
2022/03/26 06:26:47;;;;;;;122.93;59.90;;;;;;;;;;5063298;28;20443;-90
2022/03/26 06:29:14;;;;;;;128.57;61.87;;;;;;;;;;5063320;28;20438;-89
2022/03/26 06:31:41;;;;;;;130.10;61.33;;;;;;;;;;5063490;28;20949;-90
2022/03/26 06:34:08;;;;;;;139.20;60.60;;;;;;;;;;5069528;28;20541;-90
2022/03/26 06:36:35;;;;;;;131.13;60.17;;;;;;;;;;5073644;28;20187;-90
2022/03/26 06:39:03;;;;;;;127.37;58.00;;;;;;;;;;5073111;28;20544;-90
2022/03/26 06:41:30;;;;;;;129.70;58.97;;;;;;;;;;5066084;28;20540;-91
2022/03/26 06:43:57;;;;;;;127.90;60.70;;;;;;;;;;5068944;28;20450;-91
2022/03/26 06:46:24;;;;;;;125.50;60.10;;;;;;;;;;5071505;28;20876;-91
2022/03/26 06:48:52;;;;;;;119.83;57.30;;;;;;;;;;5063791;28;20526;-90
2022/03/26 06:51:19;;;;;;;122.03;58.07;;;;;;;;;;5062953;28;20443;-90
2022/03/26 06:53:49;;;;;;;123.83;56.10;;;;;;;;;;5057910;28;20559;-90
2022/03/26 06:56:18;;;;;;;129.23;60.00;;;;;;;;;;5061184;28;20828;-91
2022/03/26 06:58:45;;;;;;;120.07;57.20;;;;;;;;;;5060118;28;20478;-91
2022/03/26 07:01:12;;;;;;;121.97;59.67;;;;;;;;;;5061929;28;20501;-90
2022/03/26 07:03:39;;;;;;;133.77;59.63;;;;;;;;;;5062256;28;20442;-90
2022/03/26 07:06:06;;;;;;;128.23;60.17;;;;;;;;;;5062288;28;20478;-90
2022/03/26 07:08:32;;;;;;;127.00;58.37;;;;;;;;;;5061844;28;20541;-89
2022/03/26 07:11:00;;;;;;;120.90;60.17;;;;;;;;;;5061473;28;20450;-90
2022/03/26 07:13:29;;;;;;;128.20;57.87;;;;;;;;;;5059491;28;21308;-90
2022/03/26 07:15:56;;;;;;;122.23;58.53;;;;;;;;;;5062436;28;20502;-91
2022/03/26 07:18:23;;;;;;;125.33;57.80;;;;;;;;;;5062253;28;20502;-91
2022/03/26 07:20:52;;;;;;;123.27;59.90;;;;;;;;;;5061229;28;20491;-90
2022/03/26 07:23:19;;;;;;;132.33;59.67;;;;;;;;;;5058512;28;20459;-91
2022/03/26 07:25:46;;;;;;;126.77;60.93;;;;;;;;;;5059991;28;20454;-89
2022/03/26 07:28:13;;;;;;;127.90;60.00;;;;;;;;;;5061298;28;20561;-91
2022/03/26 07:30:41;;;;;;;139.43;63.33;;;;;;;;;;5057414;28;20442;-90
2022/03/26 07:33:08;;;;;;;139.10;62.83;;;;;;;;;;5053945;28;20526;-92
2022/03/26 07:35:35;;;;;;;134.47;64.70;;;;;;;;;;5055186;28;20946;-90
2022/03/26 07:38:02;;;;;;;125.83;59.43;;;;;;;;;;5059976;28;20447;-92
2022/03/26 07:40:29;;;;;;;131.63;61.43;;;;;;;;;;5054294;28;20511;-91
2022/03/26 07:42:56;;;;;;;136.80;63.87;;;;;;;;;;5050131;28;20434;-91
2022/03/26 07:45:23;;;;;;;130.43;62.60;;;;;;;;;;5059578;28;20537;-93
2022/03/26 07:47:51;;;;;;;131.67;63.93;;;;;;;;;;5048023;28;20905;-93
2022/03/26 07:50:18;;;;;;;131.13;61.50;;;;;;;;;;5061090;28;20799;-91
2022/03/26 07:52:45;;;;;;;131.70;61.50;;;;;;;;;;5061537;28;20449;-91
2022/03/26 07:55:12;;;;;;;138.33;61.60;;;;;;;;;;5062121;28;20476;-90
2022/03/26 07:57:39;;;;;;;130.70;59.97;;;;;;;;;;5062724;28;20534;-91
2022/03/26 08:00:07;;;;;;;131.43;63.30;;;;;;;;;;5061686;28;20490;-91
2022/03/26 08:02:34;;;;;;;129.87;60.27;;;;;;;;;;5061448;28;20439;-92
2022/03/26 08:05:02;;;;;;;128.93;62.07;;;;;;;;;;5061534;28;20450;-91
2022/03/26 08:07:29;;;;;;;136.17;64.90;;;;;;;;;;5058527;28;20526;-92
2022/03/26 08:09:56;;;;;;;131.17;63.80;;;;;;;;;;5060864;28;20510;-92
2022/03/26 08:12:22;;;;;;;129.90;62.97;;;;;;;;;;5061621;28;21010;-94
2022/03/26 08:14:50;;;;;;;130.70;64.17;;;;;;;;;;5061844;28;20864;-91
2022/03/26 08:17:18;;;;;;;129.37;65.40;;;;;;;;;;5061566;28;20450;-91
2022/03/26 08:19:45;;;;;;;135.33;65.17;;;;;;;;;;5061274;28;20494;-93
2022/03/26 08:22:15;;;;;;;135.53;66.23;;;;;;;;;;5056626;28;20466;-91
2022/03/26 08:24:42;;;;;;;127.37;63.23;;;;;;;;;;5059043;28;20477;-91
2022/03/26 08:27:09;;;;;;;131.50;65.50;;;;;;;;;;5059354;28;20533;-93
2022/03/26 08:29:36;;;;;;;128.47;63.90;;;;;;;;;;5061899;28;20470;-93
2022/03/26 08:32:05;;;;;;;132.03;62.90;;;;;;;;;;5061657;28;20518;-92
2022/03/26 08:34:32;;;;;;;133.50;64.70;;;;;;;;;;5060997;28;20457;-92
2022/03/26 08:36:59;;;;;;;131.10;65.40;;;;;;;;;;5057952;28;20493;-91
2022/03/26 08:39:28;;;;;;;136.20;69.57;;;;;;;;;;5053514;28;20529;-91
2022/03/26 08:41:54;;;;;;;139.80;67.80;;;;;;;;;;5059821;28;20466;-92
2022/03/26 08:44:21;;;;;;;135.23;66.07;;;;;;;;;;5059793;28;20511;-91
2022/03/26 08:46:48;;;;;;;134.10;67.40;;;;;;;;;;5061060;28;20449;-92
2022/03/26 08:49:15;;;;;;;135.00;65.27;;;;;;;;;;5061301;28;20494;-93
2022/03/26 08:51:44;;;;;;;133.57;65.57;;;;;;;;;;5062102;28;20456;-92
2022/03/26 08:54:11;;;;;;;136.13;66.40;;;;;;;;;;5060286;28;20475;-91
2022/03/26 08:56:40;;;;;;;133.33;66.00;;;;;;;;;;5055742;28;20470;-92
2022/03/26 08:59:06;;;;;;;132.40;64.03;;;;;;;;;;5060818;28;20534;-92
2022/03/26 09:01:33;;;;;;;137.60;68.00;;;;;;;;;;5059754;28;20439;-91
2022/03/26 09:04:00;;;;;;;139.90;67.30;;;;;;;;;;5062506;28;20450;-94
2022/03/26 09:06:26;;;;;;;134.13;66.10;;;;;;;;;;5065113;28;21009;-93
2022/03/26 09:08:53;;;;;;;133.47;66.93;;;;;;;;;;5063829;28;20450;-90
2022/03/26 09:11:20;;;;;;;131.40;65.10;;;;;;;;;;5065131;28;20446;-92
2022/03/26 09:13:48;;;;;;;138.27;66.80;;;;;;;;;;5061443;28;20450;-88
2022/03/26 09:16:14;;;;;;;140.40;68.97;;;;;;;;;;5060265;28;20455;-91
2022/03/26 09:18:41;;;;;;;137.03;70.20;;;;;;;;;;5063415;28;20468;-93
2022/03/26 09:21:07;;;;;;;127.00;64.63;;;;;;;;;;5062324;28;20901;-93
2022/03/26 09:23:34;;;;;;;133.37;65.10;;;;;;;;;;5065812;28;20453;-89
2022/03/26 09:26:04;;;;;;;138.17;66.87;;;;;;;;;;5064937;28;20506;-89
2022/03/26 09:28:31;;;;;;;136.00;66.97;;;;;;;;;;5063327;28;20447;-91
2022/03/26 09:30:58;;;;;;;139.03;69.10;;;;;;;;;;5058145;28;20516;-91
2022/03/26 09:33:25;;;;;;;144.67;73.90;;;;;;;;;;5054761;28;20443;-89
2022/03/26 09:35:51;;;;;;;140.57;66.70;;;;;;;;;;5059680;28;20442;-88
2022/03/26 09:38:18;;;;;;;131.37;66.27;;;;;;;;;;5061870;28;20476;-90
2022/03/26 09:40:44;;;;;;;134.83;64.47;;;;;;;;;;5064366;28;21283;-91
2022/03/26 09:43:13;;;;;;;134.53;67.47;;;;;;;;;;5063442;28;20443;-90
2022/03/26 09:45:40;;;;;;;133.50;67.33;;;;;;;;;;5064751;28;20446;-90
2022/03/26 09:48:08;;;;;;;135.47;70.13;;;;;;;;;;5059631;28;20536;-89
2022/03/26 09:50:35;;;;;;;136.73;69.67;;;;;;;;;;5063044;28;20442;-90
2022/03/26 09:53:01;;;;;;;135.60;67.47;;;;;;;;;;5065005;28;20493;-92
2022/03/26 09:55:28;;;;;;;137.00;70.87;;;;;;;;;;5064826;28;20474;-90
2022/03/26 09:57:55;;;;;;;140.23;71.40;;;;;;;;;;5065280;28;20541;-90
2022/03/26 10:00:21;;;;;;;137.03;68.83;;;;;;;;;;5065452;28;20524;-90
2022/03/26 10:02:48;;;;;;;135.10;69.67;;;;;;;;;;5064985;28;20446;-92
2022/03/26 10:05:19;;;;;;;134.40;68.70;;;;;;;;;;5061919;28;20493;-91
2022/03/26 10:07:47;;;;;;;135.07;68.03;;;;;;;;;;5065002;28;20446;-91
2022/03/26 10:10:21;;;;;;;141.10;70.23;;;;;;;;;;5063976;28;20494;-95
2022/03/26 10:12:49;;;;;;;133.17;67.30;;;;;;;;;;5065731;28;20445;-90
2022/03/26 10:15:16;;;;;;;133.97;66.97;;;;;;;;;;5064607;28;20477;-94
2022/03/26 10:17:42;;;;;;;135.10;70.23;;;;;;;;;;5067411;28;20450;-94
2022/03/26 10:20:11;;;;;;;134.60;69.53;;;;;;;;;;5066159;28;20491;-92
2022/03/26 10:22:40;;;;;;;132.27;69.20;;;;;;;;;;5060929;28;20907;-93
2022/03/26 10:25:08;;;;;;;131.53;66.17;;;;;;;;;;5060663;28;20462;-92
2022/03/26 10:27:36;;;;;;;132.73;69.63;;;;;;;;;;5064377;28;21002;-91
2022/03/26 10:30:03;;;;;;;137.27;68.80;;;;;;;;;;5064285;28;20446;-94
2022/03/26 10:32:39;;;;;;;135.63;68.40;;;;;;;;;;5062937;28;20449;-92
2022/03/26 10:35:06;;;;;;;137.37;70.27;;;;;;;;;;5062796;28;20480;-92
2022/03/26 10:37:42;;;;;;;135.63;69.00;;;;;;;;;;5064790;28;20465;-93
2022/03/26 14:58:26;;;;;;;142.27;65.93;;;;;;;;;;5136091;27;20580;-91
2022/03/26 15:00:53;;;;;;;133.77;67.17;;;;;;;;;;5131202;28;20448;-91
2022/03/26 15:03:20;;;;;;;146.97;67.67;;;;;;;;;;5119763;28;20510;-88
2022/03/26 15:05:46;;;;;;;128.23;66.20;;;;;;;;;;5119046;28;20468;-88
2022/03/26 15:08:12;;;;;;;128.90;64.60;;;;;;;;;;5118694;28;20787;-88
2022/03/26 15:10:39;;;;;;;134.47;68.47;;;;;;;;;;5116688;28;21030;-88
2022/03/26 15:13:06;;;;;;;130.50;65.47;;;;;;;;;;5128942;28;20458;-87
2022/03/26 15:15:33;;;;;;;132.67;66.47;;;;;;;;;;5116419;28;20511;-87
2022/03/26 15:18:00;;;;;;;129.73;65.40;;;;;;;;;;5120451;28;21059;-87
2022/03/26 15:20:26;;;;;;;129.17;64.97;;;;;;;;;;5120166;28;20520;-88
2022/03/26 15:22:53;;;;;;;134.63;67.47;;;;;;;;;;5118102;28;20523;-87
2022/03/26 15:25:20;;;;;;;131.97;67.67;;;;;;;;;;5119836;28;20454;-87
2022/03/26 15:27:46;;;;;;;133.33;68.73;;;;;;;;;;5118101;28;20450;-87
2022/03/26 15:30:13;;;;;;;133.20;68.80;;;;;;;;;;5115030;28;20459;-88
2022/03/26 15:32:40;;;;;;;128.43;65.37;;;;;;;;;;5100015;28;21182;-87
2022/03/26 15:35:07;;;;;;;132.87;67.40;;;;;;;;;;5099342;28;20474;-87
2022/03/26 15:37:34;;;;;;;131.17;65.50;;;;;;;;;;5099108;28;20571;-88
2022/03/26 15:40:05;;;;;;;136.00;65.30;;;;;;;;;;5099422;28;20441;-87
2022/03/26 15:42:31;;;;;;;134.90;67.87;;;;;;;;;;5119030;28;20691;-87
2022/03/26 15:44:58;;;;;;;133.57;67.30;;;;;;;;;;5119507;28;20476;-88
2022/03/26 15:47:24;;;;;;;135.47;71.10;;;;;;;;;;5118111;28;20465;-89
2022/03/26 15:49:52;;;;;;;128.90;65.83;;;;;;;;;;5136894;28;20480;-89
2022/03/26 15:52:19;;;;;;;132.10;68.40;;;;;;;;;;5122273;28;20442;-89
2022/03/26 15:54:46;;;;;;;131.20;67.07;;;;;;;;;;5119859;28;20450;-88
2022/03/26 15:57:13;;;;;;;133.57;69.13;;;;;;;;;;5118763;28;20495;-88
2022/03/26 15:59:39;;;;;;;134.20;67.70;;;;;;;;;;5119195;28;20833;-87
2022/03/26 16:02:06;;;;;;;133.93;64.10;;;;;;;;;;5119884;28;20496;-87
2022/03/26 16:04:32;;;;;;;130.60;69.10;;;;;;;;;;5119897;28;20445;-88
2022/03/26 16:07:00;;;;;;;130.83;68.10;;;;;;;;;;5115574;28;20461;-88
2022/03/26 16:09:27;;;;;;;133.13;67.43;;;;;;;;;;5107285;28;20446;-88
2022/03/26 16:11:53;;;;;;;129.17;65.37;;;;;;;;;;5105671;28;20505;-90
2022/03/26 16:14:24;;;;;;;132.40;68.30;;;;;;;;;;5105877;28;20456;-88
2022/03/26 16:16:51;;;;;;;137.77;68.90;;;;;;;;;;5092233;28;20569;-87
2022/03/26 16:19:17;;;;;;;134.40;69.57;;;;;;;;;;5082559;28;20446;-88
2022/03/26 16:21:44;;;;;;;135.50;69.70;;;;;;;;;;5093715;28;20489;-87
2022/03/26 16:24:11;;;;;;;136.30;70.30;;;;;;;;;;5124243;28;20473;-88
2022/03/26 16:26:39;;;;;;;138.10;69.57;;;;;;;;;;5114212;28;20449;-88
2022/03/26 16:29:06;;;;;;;137.37;68.57;;;;;;;;;;5104349;28;20523;-88
2022/03/26 16:31:33;;;;;;;142.90;68.63;;;;;;;;;;5104203;28;20497;-88
2022/03/26 16:33:59;;;;;;;143.03;69.50;;;;;;;;;;5105232;28;20454;-88
2022/03/26 16:36:26;;;;;;;140.07;68.30;;;;;;;;;;5105324;28;20436;-87
2022/03/26 16:38:52;;;;;;;136.40;70.10;;;;;;;;;;5102046;28;20466;-87
2022/03/26 16:41:20;;;;;;;146.80;72.97;;;;;;;;;;5103320;28;20457;-88
2022/03/26 16:43:47;;;;;;;139.87;68.67;;;;;;;;;;5103496;28;20484;-88
2022/03/26 16:46:14;;;;;;;140.23;66.10;;;;;;;;;;5103184;28;20493;-88
2022/03/26 16:48:40;;;;;;;134.97;64.60;;;;;;;;;;5104018;28;20440;-88
2022/03/26 16:51:07;;;;;;;139.60;69.63;;;;;;;;;;5103463;28;20489;-88
2022/03/26 16:53:33;;;;;;;137.20;68.33;;;;;;;;;;5099791;28;20467;-88
2022/03/26 16:56:00;;;;;;;140.97;68.73;;;;;;;;;;5095931;28;20464;-88
2022/03/26 16:58:28;;;;;;;130.27;64.70;;;;;;;;;;5101790;28;20484;-89
2022/03/26 17:00:54;;;;;;;133.17;66.67;;;;;;;;;;5102983;28;20447;-89
2022/03/26 17:03:22;;;;;;;137.23;66.67;;;;;;;;;;5102427;28;20444;-89
2022/03/26 17:05:49;;;;;;;142.83;66.87;;;;;;;;;;5103219;28;20469;-88
2022/03/26 17:08:15;;;;;;;126.33;63.10;;;;;;;;;;5103485;28;20792;-88
2022/03/26 17:10:42;;;;;;;134.00;64.50;;;;;;;;;;5103574;28;20502;-88
2022/03/26 17:13:09;;;;;;;137.47;66.00;;;;;;;;;;5098449;28;20512;-88
2022/03/26 17:15:37;;;;;;;133.10;63.87;;;;;;;;;;5123894;28;20508;-88
2022/03/26 17:18:03;;;;;;;138.13;64.80;;;;;;;;;;5103964;28;20561;-88
2022/03/26 17:20:30;;;;;;;133.57;64.70;;;;;;;;;;5101563;28;20441;-87
2022/03/26 17:22:56;;;;;;;136.33;66.17;;;;;;;;;;5103338;28;20505;-87
2022/03/26 17:25:23;;;;;;;146.30;70.13;;;;;;;;;;5103691;28;20445;-88
2022/03/26 17:27:51;;;;;;;143.77;70.60;;;;;;;;;;5104039;28;20456;-88
2022/03/26 17:30:17;;;;;;;145.67;68.73;;;;;;;;;;5101623;28;20519;-88
2022/03/26 17:32:48;;;;;;;137.03;66.20;;;;;;;;;;5106491;28;20457;-88
2022/03/26 17:35:14;;;;;;;134.80;64.67;;;;;;;;;;5102138;28;20472;-88
2022/03/26 17:37:41;;;;;;;145.93;64.63;;;;;;;;;;5102219;28;20484;-87
2022/03/26 17:40:08;;;;;;;132.00;64.60;;;;;;;;;;5098072;28;20479;-88
2022/03/26 17:42:34;;;;;;;126.87;61.13;;;;;;;;;;5102909;28;20506;-87
2022/03/26 17:45:01;;;;;;;136.77;67.97;;;;;;;;;;5103545;28;20474;-87
2022/03/26 17:47:27;;;;;;;137.63;67.40;;;;;;;;;;5108968;28;20464;-87
2022/03/26 17:49:56;;;;;;;143.13;71.70;;;;;;;;;;5113920;28;20457;-87
2022/03/26 17:52:23;;;;;;;130.83;64.80;;;;;;;;;;5083978;28;20453;-88
2022/03/26 17:54:49;;;;;;;134.47;66.87;;;;;;;;;;5080479;28;20971;-88
2022/03/26 17:57:16;;;;;;;134.83;64.70;;;;;;;;;;5091873;28;20565;-89
2022/03/26 17:59:42;;;;;;;141.37;68.13;;;;;;;;;;5103118;28;20444;-87
2022/03/26 18:02:09;;;;;;;148.60;71.83;;;;;;;;;;5101971;28;20441;-88
2022/03/26 18:04:35;;;;;;;138.33;63.50;;;;;;;;;;5101078;28;20449;-88
2022/03/26 18:07:03;;;;;;;131.33;60.80;;;;;;;;;;5097371;28;20453;-87
2022/03/26 18:09:29;;;;;;;149.83;68.53;;;;;;;;;;5101604;28;20470;-88
2022/03/26 18:11:56;;;;;;;132.73;64.63;;;;;;;;;;5102096;28;20448;-87
2022/03/26 18:14:23;;;;;;;145.97;68.17;;;;;;;;;;5103006;28;20449;-87
2022/03/26 18:16:51;;;;;;;140.43;64.90;;;;;;;;;;5102050;28;20506;-87
2022/03/26 18:19:17;;;;;;;133.20;62.77;;;;;;;;;;5102624;28;20491;-88
2022/03/26 18:21:44;;;;;;;137.37;64.60;;;;;;;;;;5105429;28;20506;-87